Time;durP1;ratioP1;P1;durP2;ratioP2;P2;SDS_P1;SDS_P2;PMS_P1;PMS_P2;Temp;Humidity;BMP_temperature;BMP_pressure;BME280_temperature;BME280_humidity;BME280_pressure;Samples;Min_cycle;Max_cycle;Signal;HPM_P1;HPM_P2
2023/04/18 00:00:41;;;;;;;5.50;4.15;;;;;;;11.33;66.14;93303.91;5005157;28;20041;-78
2023/04/18 00:03:08;;;;;;;6.68;4.38;;;;;;;11.28;65.99;93282.03;5005634;28;20502;-77
2023/04/18 00:05:35;;;;;;;5.28;4.00;;;;;;;11.41;65.79;93294.25;5001274;28;20084;-76
2023/04/18 00:08:01;;;;;;;6.47;4.47;;;;;;;11.28;66.01;93287.34;5005037;28;20033;-78
2023/04/18 00:10:26;;;;;;;6.10;3.65;;;;;;;11.35;66.38;93292.91;5004104;28;20041;-78
2023/04/18 00:12:52;;;;;;;3.42;3.10;;;;;;;11.27;65.96;93285.78;5005317;28;20029;-78
2023/04/18 00:15:17;;;;;;;5.07;3.38;;;;;;;11.31;66.37;93300.78;5007883;28;20109;-78
2023/04/18 00:17:42;;;;;;;5.15;3.35;;;;;;;11.24;66.46;93297.09;5003081;28;20065;-78
2023/04/18 00:20:10;;;;;;;4.43;3.10;;;;;;;11.00;66.44;93255.25;5005237;28;20107;-78
2023/04/18 00:22:41;;;;;;;4.85;3.30;;;;;;;11.26;66.53;93297.53;5004992;28;20029;-77
2023/04/18 00:25:07;;;;;;;3.58;3.08;;;;;;;11.36;66.45;93305.09;5006103;28;20021;-78
2023/04/18 00:27:32;;;;;;;3.85;3.17;;;;;;;11.28;66.30;93290.00;5004122;28;20028;-78
2023/04/18 00:29:58;;;;;;;4.60;3.60;;;;;;;11.39;66.25;93307.13;5002786;28;20029;-78
2023/04/18 00:32:23;;;;;;;4.68;3.70;;;;;;;11.21;66.26;93279.91;5005427;28;20520;-78
2023/04/18 00:34:48;;;;;;;4.97;4.03;;;;;;;11.23;66.25;93292.88;4999012;28;20739;-78
2023/04/18 00:37:14;;;;;;;4.22;3.70;;;;;;;11.22;66.50;93288.66;5005072;28;20025;-78
2023/04/18 00:39:39;;;;;;;4.68;4.10;;;;;;;11.26;66.66;93294.88;5004863;28;20030;-77
2023/04/18 00:42:05;;;;;;;5.35;3.92;;;;;;;11.17;66.48;93279.78;5005710;28;20558;-75
2023/04/18 00:44:31;;;;;;;6.80;4.00;;;;;;;11.23;66.29;93288.34;5003853;28;20069;-78
2023/04/18 00:46:56;;;;;;;4.13;3.63;;;;;;;11.22;66.05;93270.03;5011608;28;20142;-78
2023/04/18 00:49:22;;;;;;;4.50;3.90;;;;;;;11.40;65.53;93287.34;5005661;28;20034;-77
2023/04/18 00:51:49;;;;;;;6.30;4.68;;;;;;;11.31;65.18;93282.13;5004436;28;20030;-78
2023/04/18 00:54:17;;;;;;;5.07;4.40;;;;;;;11.10;65.16;93244.19;5006667;28;20037;-77
2023/04/18 00:56:43;;;;;;;5.47;4.68;;;;;;;11.22;65.98;93280.69;5004655;28;20041;-77
2023/04/18 00:59:09;;;;;;;5.85;4.18;;;;;;;11.10;66.32;93281.44;5004748;28;20590;-78
2023/04/18 01:01:36;;;;;;;5.35;4.30;;;;;;;10.98;66.28;93260.09;5006089;28;20426;-76
2023/04/18 01:04:01;;;;;;;4.75;4.15;;;;;;;11.02;66.47;93264.44;5005935;28;20022;-76
2023/04/18 01:06:28;;;;;;;4.95;4.45;;;;;;;11.05;66.57;93263.03;5006047;28;20095;-77
2023/04/18 01:08:55;;;;;;;7.25;5.18;;;;;;;11.08;66.99;93271.13;5004334;28;20038;-77
2023/04/18 01:11:20;;;;;;;4.93;4.40;;;;;;;10.92;67.23;93251.53;5003243;28;20069;-76
2023/04/18 01:14:06;;;;;;;9.35;4.55;;;;;;;11.02;67.53;93261.78;5003774;28;20496;-77
2023/04/18 01:16:32;;;;;;;5.82;4.13;;;;;;;10.95;67.59;93250.91;5007504;28;20104;-77
2023/04/18 01:19:02;;;;;;;5.47;4.93;;;;;;;11.01;67.15;93257.56;5009323;28;20148;-76
2023/04/18 01:21:30;;;;;;;7.72;5.05;;;;;;;11.15;67.17;93276.66;5006837;28;20047;-77
2023/04/18 01:24:01;;;;;;;8.82;5.63;;;;;;;11.16;66.87;93272.91;5006010;28;20579;-78
2023/04/18 01:26:27;;;;;;;7.38;5.63;;;;;;;11.05;66.82;93261.09;5008057;28;20300;-76
2023/04/18 01:28:53;;;;;;;5.85;5.07;;;;;;;10.74;67.78;93239.53;5006337;28;20317;-77
2023/04/18 01:31:18;;;;;;;5.45;4.95;;;;;;;11.03;67.22;93273.97;5008400;28;20245;-77
2023/04/18 01:33:43;;;;;;;7.03;4.68;;;;;;;11.03;67.54;93260.69;5009307;28;20387;-76
2023/04/18 01:36:09;;;;;;;9.15;6.43;;;;;;;11.06;67.51;93273.31;5010551;28;20045;-78
2023/04/18 01:38:34;;;;;;;8.38;4.80;;;;;;;11.13;67.35;93267.47;5009603;28;20444;-77
2023/04/18 01:41:01;;;;;;;6.43;5.75;;;;;;;11.15;67.10;93271.34;5007348;28;20111;-76
2023/04/18 01:43:26;;;;;;;8.73;7.20;;;;;;;10.96;66.97;93241.00;5011006;28;20717;-77
2023/04/18 01:45:51;;;;;;;8.77;6.80;;;;;;;10.99;67.36;93248.34;5007106;28;20060;-77
2023/04/18 01:48:17;;;;;;;9.57;7.13;;;;;;;10.95;67.56;93245.59;5006302;28;20546;-77
2023/04/18 01:50:42;;;;;;;9.43;6.88;;;;;;;11.03;67.58;93258.00;5009308;28;20406;-77
2023/04/18 01:53:07;;;;;;;12.60;7.10;;;;;;;11.00;67.77;93258.66;5008457;28;20040;-77
2023/04/18 01:55:33;;;;;;;8.32;7.05;;;;;;;10.98;67.79;93260.88;5009265;28;20041;-76
2023/04/18 01:57:58;;;;;;;8.52;7.43;;;;;;;11.08;67.49;93260.47;5009367;28;20492;-77
2023/04/18 02:00:24;;;;;;;8.85;7.80;;;;;;;11.05;67.47;93247.06;5014942;28;20041;-77
2023/04/18 02:02:49;;;;;;;10.23;7.07;;;;;;;11.08;67.53;93251.69;5006162;28;20083;-76
2023/04/18 02:05:15;;;;;;;8.75;6.90;;;;;;;10.98;67.46;93239.59;5009583;28;20041;-77
2023/04/18 02:07:41;;;;;;;11.10;6.85;;;;;;;11.02;67.48;93256.44;5006289;28;20099;-76
2023/04/18 02:10:09;;;;;;;9.95;7.40;;;;;;;10.89;67.59;93246.88;5006607;28;20054;-76
2023/04/18 02:12:34;;;;;;;10.40;7.28;;;;;;;10.83;67.45;93228.78;5020171;28;20040;-78
2023/04/18 02:14:59;;;;;;;10.65;7.57;;;;;;;11.09;67.17;93267.34;5008001;28;20030;-77
2023/04/18 02:17:25;;;;;;;8.15;7.20;;;;;;;11.01;67.55;93259.44;5007691;28;20049;-76
2023/04/18 02:19:50;;;;;;;8.52;7.45;;;;;;;11.08;67.51;93271.13;5007689;28;20030;-76
2023/04/18 02:22:16;;;;;;;9.15;7.45;;;;;;;11.11;67.59;93277.66;5007205;28;20098;-78
2023/04/18 02:24:42;;;;;;;7.47;6.70;;;;;;;10.92;67.58;93256.88;5009249;28;20032;-78
2023/04/18 02:27:07;;;;;;;10.57;7.25;;;;;;;10.97;67.45;93258.53;5003864;28;20045;-77
2023/04/18 02:29:33;;;;;;;9.35;6.20;;;;;;;11.09;67.77;93272.66;5010107;28;20474;-77
2023/04/18 02:31:59;;;;;;;9.90;6.07;;;;;;;10.98;67.71;93252.91;5006672;28;20483;-76
2023/04/18 02:34:24;;;;;;;6.97;6.28;;;;;;;11.08;67.46;93276.44;5007036;28;20041;-77
2023/04/18 02:36:50;;;;;;;7.10;5.63;;;;;;;10.98;67.38;93254.78;5006170;28;20037;-77
2023/04/18 02:39:15;;;;;;;7.82;5.78;;;;;;;10.93;67.67;93252.31;5008192;28;20341;-77
2023/04/18 02:41:40;;;;;;;6.85;5.22;;;;;;;11.17;67.26;93285.09;5006320;28;20539;-78
2023/04/18 02:44:07;;;;;;;9.25;5.70;;;;;;;11.16;67.48;93283.53;5008704;28;20064;-78
2023/04/18 02:46:32;;;;;;;9.05;6.40;;;;;;;11.16;67.20;93278.22;5005007;28;20042;-77
2023/04/18 02:48:58;;;;;;;9.32;6.88;;;;;;;11.14;67.60;93277.78;5007191;28;20032;-77
2023/04/18 02:51:23;;;;;;;7.03;6.32;;;;;;;11.09;67.15;93261.25;5005534;28;20420;-76
2023/04/18 02:53:53;;;;;;;8.48;6.38;;;;;;;11.11;67.28;93269.66;5008580;28;20033;-77
2023/04/18 02:56:19;;;;;;;7.38;6.43;;;;;;;11.16;67.23;93272.91;5004749;28;20048;-78
2023/04/18 02:58:44;;;;;;;8.88;6.32;;;;;;;11.16;67.11;93270.25;5007001;28;20397;-77
2023/04/18 03:01:10;;;;;;;8.13;5.75;;;;;;;11.18;66.96;93264.59;5006508;28;20138;-76
2023/04/18 03:03:35;;;;;;;6.57;5.47;;;;;;;11.06;66.92;93248.59;5007242;28;20370;-77
2023/04/18 03:06:00;;;;;;;5.85;4.85;;;;;;;11.17;67.05;93279.78;5007707;28;20042;-76
2023/04/18 03:08:26;;;;;;;5.22;4.72;;;;;;;11.16;66.85;93283.53;5007389;28;20096;-77
2023/04/18 03:10:51;;;;;;;5.93;4.65;;;;;;;11.17;67.01;93279.78;5005639;28;20038;-77
2023/04/18 03:13:17;;;;;;;4.45;4.05;;;;;;;11.17;66.71;93284.31;5007764;28;20072;-76
2023/04/18 03:15:42;;;;;;;5.97;4.72;;;;;;;11.16;67.00;93282.75;5006398;28;20041;-77
2023/04/18 03:18:07;;;;;;;7.00;6.22;;;;;;;11.11;66.90;93289.06;5007039;28;20124;-76
2023/04/18 03:20:33;;;;;;;6.97;6.07;;;;;;;11.01;67.06;93292.16;5003929;28;20037;-76
2023/04/18 03:22:59;;;;;;;8.73;5.82;;;;;;;10.98;67.53;93298.13;5007292;28;20034;-76
2023/04/18 03:25:24;;;;;;;8.20;6.47;;;;;;;10.99;67.58;93297.03;5005686;28;20360;-76
2023/04/18 03:27:50;;;;;;;9.15;7.32;;;;;;;11.00;67.87;93300.47;5006386;28;20105;-78
2023/04/18 03:30:16;;;;;;;9.57;8.30;;;;;;;10.91;67.69;93286.44;5004642;28;20069;-76
2023/04/18 03:32:42;;;;;;;11.30;8.43;;;;;;;10.83;68.16;93303.28;5013374;28;20040;-77
2023/04/18 03:35:08;;;;;;;9.68;7.82;;;;;;;10.50;69.69;93297.91;5005020;28;20037;-77
2023/04/18 03:37:33;;;;;;;12.85;8.13;;;;;;;10.24;70.92;93292.75;5003000;28;20140;-77
2023/04/18 03:39:58;;;;;;;10.95;8.80;;;;;;;9.82;71.84;93278.63;4984200;28;20030;-78
2023/04/18 03:42:24;;;;;;;14.13;11.63;;;;;;;9.74;73.47;93312.06;4986933;28;20136;-79
2023/04/18 03:44:49;;;;;;;52.05;38.58;;;;;;;9.80;73.32;93300.19;4984903;28;20045;-78
2023/04/18 03:47:15;;;;;;;42.97;29.25;;;;;;;9.71;73.34;93298.66;4985841;28;20290;-78
2023/04/18 03:49:41;;;;;;;46.78;23.75;;;;;;;9.58;73.38;93294.34;4986915;28;20129;-76
2023/04/18 03:52:06;;;;;;;30.38;20.60;;;;;;;9.63;74.08;93312.75;4986535;28;20034;-76
2023/04/18 03:54:32;;;;;;;19.20;14.15;;;;;;;9.45;74.46;93296.88;4987383;28;20056;-79
2023/04/18 03:56:58;;;;;;;19.20;12.60;;;;;;;9.78;73.66;93304.28;4986252;28;20092;-78
2023/04/18 03:59:24;;;;;;;13.35;10.68;;;;;;;9.80;73.07;93288.78;4985989;28;20092;-77
2023/04/18 04:01:49;;;;;;;13.57;10.20;;;;;;;9.73;73.92;93291.16;4987177;28;20038;-75
2023/04/18 04:04:15;;;;;;;13.15;10.30;;;;;;;9.95;73.18;93322.75;4984408;28;20033;-75
2023/04/18 04:06:40;;;;;;;12.07;10.05;;;;;;;10.02;73.17;93315.09;4986200;28;21008;-77
2023/04/18 04:09:06;;;;;;;12.63;10.10;;;;;;;9.81;73.53;93325.66;4985376;28;20367;-77
2023/04/18 04:11:32;;;;;;;12.90;10.25;;;;;;;9.70;74.27;93321.78;4983940;28;20588;-76
2023/04/18 04:13:57;;;;;;;13.65;9.85;;;;;;;9.64;74.20;93316.94;4983700;28;20034;-77
2023/04/18 04:16:23;;;;;;;12.80;9.88;;;;;;;9.71;74.18;93317.25;4986318;28;20043;-78
2023/04/18 04:18:48;;;;;;;11.00;9.57;;;;;;;9.92;73.41;93326.06;4984818;28;20027;-79
2023/04/18 04:21:14;;;;;;;11.00;9.00;;;;;;;9.96;72.81;93289.00;4986771;28;20245;-77
2023/04/18 04:23:41;;;;;;;11.63;9.52;;;;;;;10.07;72.42;93312.25;4998114;28;20044;-78
2023/04/18 04:26:07;;;;;;;11.10;8.75;;;;;;;10.15;72.19;93321.25;5005710;28;20542;-78
2023/04/18 04:28:34;;;;;;;10.50;9.27;;;;;;;10.17;72.56;93333.09;5005716;28;20038;-78
2023/04/18 04:31:00;;;;;;;14.98;9.05;;;;;;;9.95;72.85;93314.78;5005567;28;20022;-76
2023/04/18 04:33:28;;;;;;;11.32;8.52;;;;;;;9.62;74.47;93327.13;5004996;28;20037;-77
2023/04/18 04:35:55;;;;;;;11.85;9.68;;;;;;;9.69;74.85;93328.19;5005197;28;20037;-78
2023/04/18 04:38:23;;;;;;;12.75;11.30;;;;;;;9.36;76.30;93335.94;5002887;28;20713;-78
2023/04/18 04:40:49;;;;;;;13.95;12.18;;;;;;;9.44;76.43;93343.09;5005987;28;20504;-77
2023/04/18 04:43:15;;;;;;;20.05;13.50;;;;;;;9.45;76.43;93336.69;5007532;28;20813;-77
2023/04/18 04:45:44;;;;;;;15.95;13.40;;;;;;;9.77;75.26;93327.38;5006850;28;20037;-78
2023/04/18 04:48:10;;;;;;;16.50;12.25;;;;;;;10.09;73.95;93323.31;5006452;28;20121;-75
2023/04/18 04:50:37;;;;;;;15.02;12.45;;;;;;;10.06;73.26;93304.59;5006016;28;20567;-75
2023/04/18 04:53:03;;;;;;;14.18;11.27;;;;;;;9.97;74.15;93328.56;5003677;28;20049;-77
2023/04/18 04:55:29;;;;;;;17.00;13.02;;;;;;;10.11;73.58;93334.41;5004726;28;20347;-78
2023/04/18 04:57:56;;;;;;;14.68;11.75;;;;;;;9.91;73.91;93327.16;5006224;28;20104;-77
2023/04/18 05:00:21;;;;;;;18.08;12.43;;;;;;;10.18;73.47;93339.97;5012431;28;20120;-77
2023/04/18 05:02:47;;;;;;;16.50;12.90;;;;;;;10.07;73.79;93338.03;5003543;28;20492;-76
2023/04/18 05:05:13;;;;;;;20.42;14.23;;;;;;;9.93;74.45;93354.16;5005867;28;20047;-78
2023/04/18 05:07:38;;;;;;;17.55;13.98;;;;;;;9.66;75.60;93333.34;5002475;28;20034;-77
2023/04/18 05:10:04;;;;;;;28.42;19.05;;;;;;;9.64;76.23;93346.16;5006084;28;20050;-77
2023/04/18 05:12:30;;;;;;;33.35;21.95;;;;;;;9.75;75.55;93347.38;5004634;28;20078;-78
2023/04/18 05:14:56;;;;;;;30.63;20.65;;;;;;;9.99;75.21;93358.22;5007038;28;20042;-76
2023/04/18 05:17:21;;;;;;;29.05;21.58;;;;;;;9.41;76.65;93346.41;5002716;28;20492;-78
2023/04/18 05:19:46;;;;;;;29.92;21.67;;;;;;;9.42;77.38;93361.22;5004564;28;20556;-77
2023/04/18 05:22:12;;;;;;;29.58;21.83;;;;;;;9.15;78.10;93356.28;5003891;28;20537;-78
2023/04/18 05:24:38;;;;;;;28.23;20.17;;;;;;;9.41;77.07;93364.97;5004825;28;20021;-78
2023/04/18 05:27:04;;;;;;;31.90;22.08;;;;;;;9.03;79.59;93353.47;5003276;28;20107;-78
2023/04/18 05:29:29;;;;;;;34.78;22.15;;;;;;;8.78;80.58;93347.09;5004079;28;20128;-77
2023/04/18 05:31:54;;;;;;;27.92;19.65;;;;;;;8.62;81.26;93342.53;5002181;28;20611;-78
2023/04/18 05:34:20;;;;;;;30.92;22.63;;;;;;;8.64;81.81;93349.09;5004464;28;21228;-78
2023/04/18 05:36:46;;;;;;;28.40;21.17;;;;;;;8.52;82.74;93344.41;5004951;28;20494;-78
2023/04/18 05:39:12;;;;;;;27.25;20.83;;;;;;;8.71;82.54;93359.22;5006891;28;20072;-77
2023/04/18 05:41:37;;;;;;;27.83;19.35;;;;;;;8.94;82.08;93371.25;5005967;28;20116;-77
2023/04/18 05:44:03;;;;;;;29.70;21.27;;;;;;;8.89;82.37;93363.47;5005123;28;20095;-78
2023/04/18 05:46:29;;;;;;;28.65;21.10;;;;;;;8.34;84.06;93363.25;5001898;28;20456;-77
2023/04/18 05:48:54;;;;;;;29.45;20.88;;;;;;;7.91;84.95;93323.44;5005218;28;20377;-77
2023/04/18 05:51:19;;;;;;;28.85;19.73;;;;;;;8.29;85.82;93368.69;5001622;28;20076;-78
2023/04/18 05:53:45;;;;;;;26.08;19.13;;;;;;;7.99;85.50;93357.88;5004536;28;20041;-77
2023/04/18 05:56:10;;;;;;;23.45;16.70;;;;;;;7.79;85.52;93373.53;5004337;28;20145;-78
2023/04/18 05:58:36;;;;;;;24.42;16.42;;;;;;;7.60;85.02;93361.28;5005519;28;20053;-78
2023/04/18 06:01:01;;;;;;;21.38;15.07;;;;;;;7.56;84.98;93376.22;5005109;28;20465;-77
2023/04/18 06:03:27;;;;;;;21.23;15.50;;;;;;;7.69;85.57;93371.91;5011420;28;20038;-78
2023/04/18 06:05:52;;;;;;;20.40;14.32;;;;;;;7.60;84.82;93363.94;5007405;28;20036;-74
2023/04/18 06:08:17;;;;;;;19.83;14.73;;;;;;;7.60;84.10;93363.94;5004536;28;20036;-78
2023/04/18 06:10:43;;;;;;;21.58;14.88;;;;;;;7.73;83.61;93381.59;5007592;28;20125;-78
2023/04/18 06:13:08;;;;;;;22.90;15.45;;;;;;;7.66;82.30;93370.66;5009065;28;20392;-78
2023/04/18 06:15:34;;;;;;;22.48;15.00;;;;;;;7.53;83.69;93382.09;5015615;28;20088;-76
2023/04/18 06:17:59;;;;;;;19.65;14.75;;;;;;;7.59;82.59;93354.44;5008811;28;20506;-77
2023/04/18 06:20:25;;;;;;;19.85;14.57;;;;;;;7.79;83.16;93358.44;5006821;28;20095;-77
2023/04/18 06:22:50;;;;;;;22.40;15.70;;;;;;;7.74;82.63;93377.09;5008029;28;20510;-77
2023/04/18 06:25:16;;;;;;;22.17;14.98;;;;;;;7.84;82.80;93373.41;5008890;28;20053;-76
2023/04/18 06:27:41;;;;;;;23.25;14.68;;;;;;;8.06;82.38;93378.63;5006701;28;20548;-76
2023/04/18 06:30:07;;;;;;;20.25;13.05;;;;;;;8.15;81.37;93355.59;5007161;28;20077;-78
2023/04/18 06:32:33;;;;;;;16.50;11.95;;;;;;;8.35;80.01;93370.13;5006544;28;20134;-76
2023/04/18 06:34:59;;;;;;;16.88;12.18;;;;;;;7.91;79.48;93356.00;5007919;28;20033;-77
2023/04/18 06:37:24;;;;;;;19.55;12.73;;;;;;;8.05;79.81;93361.16;5007361;28;20518;-76
2023/04/18 06:39:49;;;;;;;23.52;13.35;;;;;;;8.27;79.29;93358.41;5005161;28;20026;-78
2023/04/18 06:42:15;;;;;;;18.00;13.25;;;;;;;8.49;78.96;93366.25;5008485;28;20520;-77
2023/04/18 06:44:41;;;;;;;18.60;11.93;;;;;;;8.01;78.66;93328.47;5005173;28;20034;-77
2023/04/18 06:47:08;;;;;;;18.33;12.10;;;;;;;8.17;78.80;93334.84;5008733;28;20038;-78
2023/04/18 06:49:33;;;;;;;22.25;14.50;;;;;;;8.47;78.54;93368.41;5006731;28;20038;-75
2023/04/18 06:51:59;;;;;;;21.90;15.05;;;;;;;8.36;78.94;93351.28;5009407;28;20029;-77
2023/04/18 06:54:24;;;;;;;17.42;12.55;;;;;;;7.92;77.59;93327.66;5003368;28;20400;-78
2023/04/18 06:56:50;;;;;;;19.27;13.30;;;;;;;8.16;78.25;93383.66;5008078;28;20520;-77
2023/04/18 06:59:16;;;;;;;17.70;11.98;;;;;;;7.95;78.39;93319.09;5006211;28;20035;-76
2023/04/18 07:01:41;;;;;;;20.98;13.75;;;;;;;8.25;79.13;93365.91;5006744;28;20037;-77
2023/04/18 07:04:07;;;;;;;21.73;13.55;;;;;;;8.43;78.31;93378.09;5006411;28;20029;-76
2023/04/18 07:06:33;;;;;;;23.63;15.30;;;;;;;8.35;77.82;93370.91;5006231;28;20036;-75
2023/04/18 07:09:00;;;;;;;18.80;13.48;;;;;;;8.32;77.66;93371.50;5004823;28;20077;-78
2023/04/18 07:11:26;;;;;;;23.45;14.80;;;;;;;8.35;77.75;93365.59;5004937;28;20079;-77
2023/04/18 07:13:52;;;;;;;20.42;13.15;;;;;;;8.19;76.91;93385.66;5012569;28;20133;-77
2023/04/18 07:16:17;;;;;;;17.70;13.02;;;;;;;7.88;76.64;93363.75;5005730;28;20025;-78
2023/04/18 07:18:43;;;;;;;22.90;14.20;;;;;;;8.07;77.66;93359.00;5004973;28;20337;-76
2023/04/18 07:21:08;;;;;;;13.55;10.18;;;;;;;8.23;75.90;93376.00;5005678;28;20041;-77
2023/04/18 07:23:34;;;;;;;13.65;10.18;;;;;;;8.20;75.25;93366.03;5006127;28;20030;-76
2023/04/18 07:26:01;;;;;;;11.88;9.77;;;;;;;8.34;75.35;93385.25;5006826;28;20709;-76
2023/04/18 07:28:27;;;;;;;16.42;10.55;;;;;;;8.45;75.25;93369.84;5005493;28;20618;-78
2023/04/18 07:30:53;;;;;;;16.65;10.57;;;;;;;8.69;74.55;93382.63;5007376;28;20021;-78
2023/04/18 07:33:18;;;;;;;13.02;9.73;;;;;;;8.58;73.55;93379.50;5005268;28;20036;-77
2023/04/18 07:35:44;;;;;;;12.63;9.18;;;;;;;8.65;73.61;93385.13;5008144;28;20500;-76
2023/04/18 07:38:11;;;;;;;14.05;10.25;;;;;;;9.14;72.86;93391.88;5005359;28;20546;-76
2023/04/18 07:40:37;;;;;;;12.55;9.60;;;;;;;9.18;71.08;93370.78;5001574;28;20045;-77
2023/04/18 07:43:02;;;;;;;10.77;8.68;;;;;;;9.11;70.45;93375.75;4988839;28;20488;-77
2023/04/18 07:45:28;;;;;;;11.55;9.30;;;;;;;9.06;69.77;93376.69;4986252;28;20337;-76
2023/04/18 07:47:53;;;;;;;11.25;8.32;;;;;;;9.39;67.67;93387.59;4984066;28;20056;-77
2023/04/18 07:50:18;;;;;;;10.43;8.23;;;;;;;9.49;67.68;93375.91;4984710;28;20034;-78
2023/04/18 07:52:46;;;;;;;9.68;7.40;;;;;;;9.55;66.07;93383.34;4984636;28;20605;-77
2023/04/18 07:55:13;;;;;;;10.45;7.88;;;;;;;9.41;66.09;93380.13;4988014;28;20026;-77
2023/04/18 07:57:42;;;;;;;9.38;7.55;;;;;;;9.38;66.28;93378.88;4985575;28;20030;-77
2023/04/18 08:00:09;;;;;;;9.98;8.00;;;;;;;9.78;65.24;93397.97;4986404;28;20467;-78
2023/04/18 08:02:34;;;;;;;11.45;8.25;;;;;;;9.75;63.78;93384.56;4987021;28;20037;-77
2023/04/18 08:05:00;;;;;;;9.00;6.95;;;;;;;9.84;62.86;93403.91;4985646;28;20090;-77
2023/04/18 08:07:25;;;;;;;9.85;6.40;;;;;;;9.56;63.67;93405.38;4986806;28;20034;-77
2023/04/18 08:09:51;;;;;;;7.95;6.03;;;;;;;9.99;61.92;93406.03;4985320;28;20088;-77
2023/04/18 08:12:16;;;;;;;9.50;6.50;;;;;;;9.81;61.76;93409.84;4985598;28;20789;-77
2023/04/18 08:14:41;;;;;;;7.65;6.03;;;;;;;9.43;61.32;93372.63;4985953;28;20572;-76
2023/04/18 08:17:07;;;;;;;9.10;6.63;;;;;;;9.94;62.29;93413.38;4985087;28;20034;-77
2023/04/18 08:19:32;;;;;;;9.25;6.93;;;;;;;9.70;61.35;93390.03;4987434;28;20041;-77
2023/04/18 08:22:11;;;;;;;9.73;6.63;;;;;;;9.71;62.28;93405.66;4985513;28;20974;-78
2023/04/18 08:24:37;;;;;;;12.32;7.78;;;;;;;9.80;62.73;93413.59;4985858;28;20045;-77
2023/04/18 08:27:03;;;;;;;10.60;7.78;;;;;;;10.00;62.12;93391.66;4984662;28;20045;-77
2023/04/18 08:29:29;;;;;;;9.90;7.80;;;;;;;10.36;61.02;93404.50;4985189;28;20045;-76
2023/04/18 08:31:54;;;;;;;10.93;7.13;;;;;;;9.96;59.64;93408.56;4984926;28;20361;-78
2023/04/18 08:34:19;;;;;;;9.30;7.55;;;;;;;9.94;60.77;93408.84;4987842;28;20050;-77
2023/04/18 08:36:45;;;;;;;10.95;6.80;;;;;;;10.00;60.16;93412.13;4985995;28;20604;-76
2023/04/18 08:39:10;;;;;;;7.93;6.82;;;;;;;9.70;59.69;93390.03;4994430;28;20108;-77
2023/04/18 08:41:36;;;;;;;9.50;7.20;;;;;;;10.27;61.71;93417.78;4985607;28;20049;-77
2023/04/18 08:44:04;;;;;;;10.38;7.68;;;;;;;10.52;60.45;93386.88;4999709;28;20121;-77
2023/04/18 08:46:35;;;;;;;8.50;6.38;;;;;;;10.39;59.46;93392.44;4984212;28;20054;-78
2023/04/18 08:49:03;;;;;;;10.93;6.97;;;;;;;10.59;58.84;93407.66;4985790;28;20030;-77
2023/04/18 08:51:31;;;;;;;9.82;7.07;;;;;;;10.97;58.87;93408.31;4985753;28;20451;-77
2023/04/18 08:54:03;;;;;;;8.60;6.88;;;;;;;10.91;57.40;93383.00;4985316;28;20033;-77
2023/04/18 08:56:28;;;;;;;10.98;7.50;;;;;;;10.61;59.23;93400.88;4985752;28;20782;-77
2023/04/18 08:58:55;;;;;;;7.95;6.63;;;;;;;10.81;58.45;93388.72;4987269;28;20038;-77
2023/04/18 09:01:21;;;;;;;10.68;7.68;;;;;;;11.14;59.69;93364.84;4984295;28;20092;-77
2023/04/18 09:03:47;;;;;;;9.68;6.97;;;;;;;11.40;56.84;93385.88;4986364;28;20057;-77
2023/04/18 09:06:17;;;;;;;7.70;6.70;;;;;;;11.28;55.98;93407.13;4985622;28;20117;-77
2023/04/18 09:08:57;;;;;;;7.95;6.35;;;;;;;11.22;55.75;93395.13;4985762;28;20031;-77
2023/04/18 09:11:28;;;;;;;11.85;6.90;;;;;;;10.73;57.33;93385.03;4987700;28;20113;-78
2023/04/18 09:13:55;;;;;;;8.50;7.05;;;;;;;10.91;58.30;93404.28;4983690;28;20542;-78
2023/04/18 09:16:22;;;;;;;7.57;6.07;;;;;;;11.31;57.67;93387.84;4987115;28;20030;-77
2023/04/18 09:19:07;;;;;;;10.60;6.90;;;;;;;11.37;57.49;93403.28;4984538;28;20389;-78
2023/04/18 09:21:34;;;;;;;11.25;7.18;;;;;;;10.99;56.90;93384.84;5004633;28;20128;-77
2023/04/18 09:24:22;;;;;;;10.60;8.02;;;;;;;10.69;58.67;93400.06;5005832;28;20580;-77
2023/04/18 09:26:48;;;;;;;15.98;7.75;;;;;;;10.84;57.62;93401.38;5004969;28;20030;-77
2023/04/18 09:29:16;;;;;;;9.13;7.32;;;;;;;10.95;57.05;93394.59;5003944;28;20157;-77
2023/04/18 09:31:56;;;;;;;8.13;6.65;;;;;;;11.11;55.55;93400.84;5004825;28;20120;-77
2023/04/18 09:34:26;;;;;;;8.85;7.35;;;;;;;11.15;55.46;93398.31;5005860;28;20382;-77
2023/04/18 09:37:09;;;;;;;12.82;7.30;;;;;;;11.08;56.47;93398.06;5006530;28;20041;-77
2023/04/18 09:39:37;;;;;;;8.57;6.20;;;;;;;10.95;56.40;93367.97;5008275;28;20046;-77
2023/04/18 09:42:02;;;;;;;8.38;6.43;;;;;;;11.16;56.16;93395.31;5007372;28;20030;-77
2023/04/18 09:44:28;;;;;;;8.93;6.68;;;;;;;11.53;54.85;93395.50;5008032;28;20044;-79
2023/04/18 09:46:53;;;;;;;9.98;7.00;;;;;;;11.71;54.09;93390.78;5009667;28;20040;-77
2023/04/18 09:49:19;;;;;;;8.70;6.80;;;;;;;11.40;54.75;93372.56;5006566;28;20548;-78
2023/04/18 09:51:45;;;;;;;9.82;6.93;;;;;;;11.41;55.00;93395.41;5009845;28;20053;-77
2023/04/18 09:54:23;;;;;;;9.13;6.88;;;;;;;11.31;53.81;93379.84;5008165;28;20513;-77
2023/04/18 09:56:50;;;;;;;7.97;5.90;;;;;;;11.54;55.36;93375.75;5009730;28;20045;-77
2023/04/18 09:59:30;;;;;;;7.72;6.07;;;;;;;11.68;53.96;93386.91;5008410;28;20148;-76
2023/04/18 10:01:58;;;;;;;10.07;6.70;;;;;;;11.55;53.34;93374.63;5006347;28;20037;-76
2023/04/18 10:04:24;;;;;;;9.75;6.55;;;;;;;11.49;54.49;93387.34;5008558;28;20077;-77
2023/04/18 10:06:50;;;;;;;8.50;5.00;;;;;;;11.84;56.56;93366.47;5006911;28;20437;-77
2023/04/18 10:09:16;;;;;;;5.93;4.47;;;;;;;11.43;59.41;93398.53;5009147;28;20535;-77
2023/04/18 10:11:43;;;;;;;6.32;4.22;;;;;;;11.29;59.84;93398.06;5007333;28;20038;-76
2023/04/18 10:14:11;;;;;;;7.55;4.63;;;;;;;10.88;61.35;93394.31;5016759;28;20040;-77
2023/04/18 10:16:37;;;;;;;6.88;4.13;;;;;;;10.91;60.78;93392.88;5006427;28;20590;-76
2023/04/18 10:19:26;;;;;;;6.13;4.55;;;;;;;11.16;60.53;93376.69;5009977;28;20042;-76
2023/04/18 10:21:56;;;;;;;4.57;3.45;;;;;;;11.10;61.21;93378.00;5006560;28;20037;-76
2023/04/18 10:24:52;;;;;;;8.00;4.70;;;;;;;11.07;60.07;93385.84;5009269;28;20487;-76
2023/04/18 10:27:38;;;;;;;6.90;3.00;;;;;;;11.06;61.67;93378.97;5010072;28;20048;-76
2023/04/18 10:30:04;;;;;;;4.15;3.75;;;;;;;10.93;61.18;93374.72;5006567;28;20132;-76
2023/04/18 10:32:29;;;;;;;7.78;4.90;;;;;;;10.95;61.91;93377.84;5008707;28;20597;-76
2023/04/18 10:34:55;;;;;;;8.13;5.03;;;;;;;10.73;62.15;93370.94;5004173;28;20048;-77
2023/04/18 10:37:20;;;;;;;9.18;4.45;;;;;;;10.76;62.07;93370.28;5008993;28;20380;-76
2023/04/18 10:39:46;;;;;;;5.65;3.90;;;;;;;10.95;60.15;93352.00;5005211;28;20030;-76
2023/04/18 10:42:12;;;;;;;5.80;4.15;;;;;;;10.81;62.14;93362.09;5009431;28;20516;-77
2023/04/18 10:44:37;;;;;;;8.63;5.32;;;;;;;11.23;61.46;93370.84;5005785;28;20312;-77
2023/04/18 10:47:06;;;;;;;6.03;4.32;;;;;;;10.91;60.97;93377.69;5015858;28;20045;-77
2023/04/18 10:49:31;;;;;;;6.45;4.60;;;;;;;10.83;60.40;93354.59;5005377;28;20076;-76
2023/04/18 10:51:58;;;;;;;8.10;4.45;;;;;;;10.78;61.24;93362.78;5008665;28;20952;-76
2023/04/18 10:54:45;;;;;;;7.60;4.47;;;;;;;11.02;63.15;93360.22;5005853;28;20053;-76
2023/04/18 10:57:12;;;;;;;6.15;4.70;;;;;;;11.44;61.23;93368.91;5006691;28;20041;-76
2023/04/18 10:59:38;;;;;;;9.85;4.75;;;;;;;11.30;59.91;93357.00;5006805;28;20551;-76
2023/04/18 11:02:28;;;;;;;9.25;5.55;;;;;;;11.47;57.58;93367.50;5007020;28;20049;-77
2023/04/18 11:04:56;;;;;;;7.63;5.28;;;;;;;11.74;58.12;93364.25;5006215;28;20038;-76
2023/04/18 11:07:51;;;;;;;4.85;4.20;;;;;;;11.54;60.52;93365.13;5008399;28;20479;-76
2023/04/18 11:10:19;;;;;;;6.00;4.00;;;;;;;11.30;59.21;93354.34;5000420;28;20405;-77
2023/04/18 11:12:46;;;;;;;5.97;4.00;;;;;;;11.22;60.18;93347.22;5007694;28;20270;-77
2023/04/18 11:15:13;;;;;;;6.15;4.18;;;;;;;11.14;60.15;93359.50;5006336;28;20037;-76
2023/04/18 11:17:39;;;;;;;4.95;3.90;;;;;;;11.55;58.93;93348.00;5006849;28;20025;-77
2023/04/18 11:20:09;;;;;;;6.10;4.22;;;;;;;11.73;57.81;93354.72;5005155;28;20579;-76
2023/04/18 11:22:56;;;;;;;7.28;4.05;;;;;;;11.58;57.72;93332.16;5006944;28;20146;-76
2023/04/18 11:25:30;;;;;;;5.75;3.60;;;;;;;11.84;57.88;93350.50;5007397;28;20587;-77
2023/04/18 11:28:00;;;;;;;5.45;3.88;;;;;;;11.66;57.33;93333.16;5004015;28;20493;-77
2023/04/18 11:30:25;;;;;;;7.70;4.05;;;;;;;12.17;57.35;93344.31;5006596;28;20431;-76